sensor_id;sensor_type;location;lat;lon;timestamp;P1;durP1;ratioP1;P2;durP2;ratioP2
57111;SDS011;42992;49.084;19.300;2023-07-31T00:00:10;9.23;;;2.95;;
57111;SDS011;42992;49.084;19.300;2023-07-31T00:02:35;7.47;;;2.95;;
57111;SDS011;42992;49.084;19.300;2023-07-31T00:05:01;8.48;;;3.08;;
57111;SDS011;42992;49.084;19.300;2023-07-31T00:07:26;8.50;;;3.30;;
57111;SDS011;42992;49.084;19.300;2023-07-31T00:09:52;5.30;;;3.08;;
57111;SDS011;42992;49.084;19.300;2023-07-31T00:12:18;4.82;;;2.80;;
57111;SDS011;42992;49.084;19.300;2023-07-31T00:14:43;7.13;;;2.45;;
57111;SDS011;42992;49.084;19.300;2023-07-31T00:17:09;5.20;;;2.80;;
57111;SDS011;42992;49.084;19.300;2023-07-31T00:19:34;7.95;;;2.72;;
57111;SDS011;42992;49.084;19.300;2023-07-31T00:21:59;5.05;;;2.83;;
57111;SDS011;42992;49.084;19.300;2023-07-31T00:24:24;5.63;;;2.67;;
57111;SDS011;42992;49.084;19.300;2023-07-31T00:26:50;8.50;;;3.20;;
57111;SDS011;42992;49.084;19.300;2023-07-31T00:29:15;6.35;;;2.75;;
57111;SDS011;42992;49.084;19.300;2023-07-31T00:31:40;4.93;;;2.95;;
57111;SDS011;42992;49.084;19.300;2023-07-31T00:34:05;4.88;;;2.83;;
57111;SDS011;42992;49.084;19.300;2023-07-31T00:36:30;9.15;;;2.97;;
57111;SDS011;42992;49.084;19.300;2023-07-31T00:38:56;5.10;;;3.00;;
57111;SDS011;42992;49.084;19.300;2023-07-31T00:41:21;6.07;;;2.97;;
57111;SDS011;42992;49.084;19.300;2023-07-31T00:43:46;6.15;;;2.70;;
57111;SDS011;42992;49.084;19.300;2023-07-31T00:46:11;5.07;;;2.45;;
57111;SDS011;42992;49.084;19.300;2023-07-31T00:48:37;4.82;;;2.40;;
57111;SDS011;42992;49.084;19.300;2023-07-31T00:51:02;3.80;;;2.20;;
57111;SDS011;42992;49.084;19.300;2023-07-31T00:53:29;4.78;;;2.30;;
57111;SDS011;42992;49.084;19.300;2023-07-31T00:55:54;3.80;;;1.90;;
57111;SDS011;42992;49.084;19.300;2023-07-31T00:58:20;3.92;;;2.20;;
57111;SDS011;42992;49.084;19.300;2023-07-31T01:00:45;4.93;;;2.60;;
57111;SDS011;42992;49.084;19.300;2023-07-31T01:03:10;5.43;;;2.55;;
57111;SDS011;42992;49.084;19.300;2023-07-31T01:10:53;4.50;;;2.65;;
57111;SDS011;42992;49.084;19.300;2023-07-31T01:13:19;5.82;;;2.60;;
57111;SDS011;42992;49.084;19.300;2023-07-31T01:15:45;7.25;;;2.47;;
57111;SDS011;42992;49.084;19.300;2023-07-31T01:18:10;4.90;;;2.13;;
57111;SDS011;42992;49.084;19.300;2023-07-31T01:20:35;4.03;;;2.20;;
57111;SDS011;42992;49.084;19.300;2023-07-31T01:23:15;6.55;;;2.75;;
57111;SDS011;42992;49.084;19.300;2023-07-31T01:25:53;5.18;;;2.78;;
57111;SDS011;42992;49.084;19.300;2023-07-31T01:28:22;5.22;;;2.35;;
57111;SDS011;42992;49.084;19.300;2023-07-31T01:30:49;3.47;;;2.10;;
57111;SDS011;42992;49.084;19.300;2023-07-31T01:33:15;4.38;;;1.98;;
57111;SDS011;42992;49.084;19.300;2023-07-31T01:35:42;5.55;;;2.60;;
57111;SDS011;42992;49.084;19.300;2023-07-31T01:38:08;5.30;;;2.20;;
57111;SDS011;42992;49.084;19.300;2023-07-31T01:40:33;4.25;;;2.20;;
57111;SDS011;42992;49.084;19.300;2023-07-31T01:42:58;5.38;;;2.30;;
57111;SDS011;42992;49.084;19.300;2023-07-31T01:45:23;4.32;;;2.03;;
57111;SDS011;42992;49.084;19.300;2023-07-31T01:47:49;3.80;;;1.90;;
57111;SDS011;42992;49.084;19.300;2023-07-31T01:50:14;5.93;;;2.10;;
57111;SDS011;42992;49.084;19.300;2023-07-31T01:52:39;4.18;;;2.25;;
57111;SDS011;42992;49.084;19.300;2023-07-31T01:55:04;3.90;;;2.15;;
57111;SDS011;42992;49.084;19.300;2023-07-31T01:57:30;5.55;;;2.58;;
57111;SDS011;42992;49.084;19.300;2023-07-31T01:59:55;4.85;;;2.35;;
57111;SDS011;42992;49.084;19.300;2023-07-31T02:02:21;4.15;;;2.17;;
57111;SDS011;42992;49.084;19.300;2023-07-31T02:04:48;4.57;;;2.15;;
57111;SDS011;42992;49.084;19.300;2023-07-31T02:07:13;6.40;;;2.55;;
57111;SDS011;42992;49.084;19.300;2023-07-31T02:09:38;4.53;;;2.53;;
57111;SDS011;42992;49.084;19.300;2023-07-31T02:12:03;4.57;;;2.60;;
57111;SDS011;42992;49.084;19.300;2023-07-31T02:14:29;4.00;;;2.58;;
57111;SDS011;42992;49.084;19.300;2023-07-31T02:16:54;5.00;;;2.75;;
57111;SDS011;42992;49.084;19.300;2023-07-31T02:19:19;4.72;;;2.65;;
57111;SDS011;42992;49.084;19.300;2023-07-31T02:21:44;5.55;;;2.40;;
57111;SDS011;42992;49.084;19.300;2023-07-31T02:24:09;7.32;;;2.80;;
57111;SDS011;42992;49.084;19.300;2023-07-31T02:26:35;7.30;;;2.67;;
57111;SDS011;42992;49.084;19.300;2023-07-31T02:29:00;4.57;;;2.70;;
57111;SDS011;42992;49.084;19.300;2023-07-31T02:31:25;5.25;;;2.83;;
57111;SDS011;42992;49.084;19.300;2023-07-31T02:33:50;8.90;;;2.60;;
57111;SDS011;42992;49.084;19.300;2023-07-31T02:36:16;7.70;;;2.90;;
57111;SDS011;42992;49.084;19.300;2023-07-31T02:38:41;5.25;;;2.70;;
57111;SDS011;42992;49.084;19.300;2023-07-31T02:41:06;4.65;;;2.63;;
57111;SDS011;42992;49.084;19.300;2023-07-31T02:43:31;4.38;;;2.47;;
57111;SDS011;42992;49.084;19.300;2023-07-31T02:45:57;6.38;;;2.40;;
57111;SDS011;42992;49.084;19.300;2023-07-31T02:48:22;4.95;;;2.45;;
57111;SDS011;42992;49.084;19.300;2023-07-31T02:50:47;4.50;;;2.92;;
57111;SDS011;42992;49.084;19.300;2023-07-31T02:53:13;5.97;;;2.78;;
57111;SDS011;42992;49.084;19.300;2023-07-31T02:55:38;6.18;;;2.65;;
57111;SDS011;42992;49.084;19.300;2023-07-31T02:58:03;4.93;;;2.30;;
57111;SDS011;42992;49.084;19.300;2023-07-31T03:00:29;6.18;;;2.70;;
57111;SDS011;42992;49.084;19.300;2023-07-31T03:02:54;7.68;;;2.92;;
57111;SDS011;42992;49.084;19.300;2023-07-31T03:05:19;8.35;;;3.15;;
57111;SDS011;42992;49.084;19.300;2023-07-31T03:07:44;7.93;;;2.75;;
57111;SDS011;42992;49.084;19.300;2023-07-31T03:10:10;6.85;;;3.65;;
57111;SDS011;42992;49.084;19.300;2023-07-31T03:12:35;8.30;;;3.17;;
57111;SDS011;42992;49.084;19.300;2023-07-31T03:15:00;8.32;;;3.45;;
57111;SDS011;42992;49.084;19.300;2023-07-31T03:17:25;6.03;;;3.13;;
57111;SDS011;42992;49.084;19.300;2023-07-31T03:19:51;7.93;;;3.03;;
57111;SDS011;42992;49.084;19.300;2023-07-31T03:22:16;6.78;;;2.47;;
57111;SDS011;42992;49.084;19.300;2023-07-31T03:24:41;5.95;;;2.67;;
57111;SDS011;42992;49.084;19.300;2023-07-31T03:27:06;6.95;;;3.22;;
57111;SDS011;42992;49.084;19.300;2023-07-31T03:29:31;5.20;;;2.90;;
57111;SDS011;42992;49.084;19.300;2023-07-31T03:31:57;6.18;;;2.75;;
57111;SDS011;42992;49.084;19.300;2023-07-31T03:34:22;5.38;;;2.60;;
57111;SDS011;42992;49.084;19.300;2023-07-31T03:36:47;6.80;;;2.63;;
57111;SDS011;42992;49.084;19.300;2023-07-31T03:39:12;8.88;;;2.78;;
57111;SDS011;42992;49.084;19.300;2023-07-31T03:41:38;4.32;;;2.45;;
57111;SDS011;42992;49.084;19.300;2023-07-31T03:44:03;7.93;;;2.97;;
57111;SDS011;42992;49.084;19.300;2023-07-31T03:46:28;7.60;;;2.53;;
57111;SDS011;42992;49.084;19.300;2023-07-31T03:48:53;7.50;;;2.42;;
57111;SDS011;42992;49.084;19.300;2023-07-31T03:51:19;7.38;;;2.92;;
57111;SDS011;42992;49.084;19.300;2023-07-31T03:53:44;6.22;;;2.50;;
57111;SDS011;42992;49.084;19.300;2023-07-31T03:56:09;5.07;;;3.20;;
57111;SDS011;42992;49.084;19.300;2023-07-31T03:58:35;5.65;;;3.10;;
57111;SDS011;42992;49.084;19.300;2023-07-31T04:01:01;8.85;;;2.47;;
57111;SDS011;42992;49.084;19.300;2023-07-31T04:03:27;11.43;;;3.08;;
57111;SDS011;42992;49.084;19.300;2023-07-31T04:05:53;9.65;;;3.35;;
57111;SDS011;42992;49.084;19.300;2023-07-31T04:08:19;9.32;;;3.70;;
57111;SDS011;42992;49.084;19.300;2023-07-31T04:10:44;9.73;;;3.40;;
57111;SDS011;42992;49.084;19.300;2023-07-31T04:13:09;5.07;;;2.90;;
57111;SDS011;42992;49.084;19.300;2023-07-31T04:15:34;8.52;;;3.00;;
57111;SDS011;42992;49.084;19.300;2023-07-31T04:18:00;8.57;;;2.80;;
57111;SDS011;42992;49.084;19.300;2023-07-31T04:20:25;7.47;;;3.00;;
57111;SDS011;42992;49.084;19.300;2023-07-31T04:22:50;4.88;;;2.72;;
57111;SDS011;42992;49.084;19.300;2023-07-31T04:25:15;6.68;;;2.58;;
57111;SDS011;42992;49.084;19.300;2023-07-31T04:27:41;8.32;;;2.90;;
57111;SDS011;42992;49.084;19.300;2023-07-31T04:30:06;7.22;;;2.60;;
57111;SDS011;42992;49.084;19.300;2023-07-31T04:32:31;6.63;;;2.92;;
57111;SDS011;42992;49.084;19.300;2023-07-31T04:34:57;9.30;;;2.90;;
57111;SDS011;42992;49.084;19.300;2023-07-31T04:37:22;4.03;;;2.50;;
57111;SDS011;42992;49.084;19.300;2023-07-31T04:39:47;5.70;;;2.88;;
57111;SDS011;42992;49.084;19.300;2023-07-31T04:42:12;6.93;;;2.60;;
57111;SDS011;42992;49.084;19.300;2023-07-31T04:44:37;5.35;;;2.40;;
57111;SDS011;42992;49.084;19.300;2023-07-31T04:47:03;6.65;;;2.60;;
57111;SDS011;42992;49.084;19.300;2023-07-31T04:49:28;5.50;;;2.60;;
57111;SDS011;42992;49.084;19.300;2023-07-31T04:51:53;5.47;;;2.80;;
57111;SDS011;42992;49.084;19.300;2023-07-31T04:54:19;5.72;;;2.65;;
57111;SDS011;42992;49.084;19.300;2023-07-31T04:56:44;6.43;;;2.70;;
57111;SDS011;42992;49.084;19.300;2023-07-31T04:59:09;4.53;;;2.50;;
57111;SDS011;42992;49.084;19.300;2023-07-31T05:01:35;5.75;;;2.55;;
57111;SDS011;42992;49.084;19.300;2023-07-31T05:04:00;6.03;;;2.78;;
57111;SDS011;42992;49.084;19.300;2023-07-31T05:06:25;8.82;;;2.80;;
57111;SDS011;42992;49.084;19.300;2023-07-31T05:08:50;5.80;;;2.97;;
57111;SDS011;42992;49.084;19.300;2023-07-31T05:11:16;7.25;;;2.63;;
57111;SDS011;42992;49.084;19.300;2023-07-31T05:13:41;11.02;;;6.43;;
57111;SDS011;42992;49.084;19.300;2023-07-31T05:16:06;6.78;;;3.03;;
57111;SDS011;42992;49.084;19.300;2023-07-31T05:18:31;7.18;;;2.65;;
57111;SDS011;42992;49.084;19.300;2023-07-31T05:20:57;10.15;;;3.42;;
57111;SDS011;42992;49.084;19.300;2023-07-31T05:23:22;6.63;;;2.70;;
57111;SDS011;42992;49.084;19.300;2023-07-31T05:25:47;8.65;;;2.75;;
57111;SDS011;42992;49.084;19.300;2023-07-31T05:28:12;5.57;;;2.40;;
57111;SDS011;42992;49.084;19.300;2023-07-31T05:30:38;7.97;;;2.50;;
57111;SDS011;42992;49.084;19.300;2023-07-31T05:33:03;7.40;;;2.80;;
57111;SDS011;42992;49.084;19.300;2023-07-31T05:35:28;8.68;;;2.10;;
57111;SDS011;42992;49.084;19.300;2023-07-31T05:37:53;3.50;;;2.10;;
57111;SDS011;42992;49.084;19.300;2023-07-31T05:40:19;4.43;;;2.20;;
57111;SDS011;42992;49.084;19.300;2023-07-31T05:42:44;6.10;;;2.15;;
57111;SDS011;42992;49.084;19.300;2023-07-31T05:45:09;4.82;;;2.28;;
57111;SDS011;42992;49.084;19.300;2023-07-31T05:47:35;9.35;;;2.45;;
57111;SDS011;42992;49.084;19.300;2023-07-31T05:50:00;5.15;;;2.42;;
57111;SDS011;42992;49.084;19.300;2023-07-31T05:52:25;5.30;;;2.47;;
57111;SDS011;42992;49.084;19.300;2023-07-31T05:54:50;4.70;;;1.90;;
57111;SDS011;42992;49.084;19.300;2023-07-31T05:57:16;6.78;;;2.33;;
57111;SDS011;42992;49.084;19.300;2023-07-31T05:59:41;10.35;;;2.13;;
57111;SDS011;42992;49.084;19.300;2023-07-31T06:02:07;9.35;;;2.25;;
57111;SDS011;42992;49.084;19.300;2023-07-31T06:04:32;4.85;;;2.20;;
57111;SDS011;42992;49.084;19.300;2023-07-31T06:06:57;6.70;;;2.03;;
57111;SDS011;42992;49.084;19.300;2023-07-31T06:09:22;4.17;;;1.60;;
57111;SDS011;42992;49.084;19.300;2023-07-31T06:11:48;5.60;;;2.33;;
57111;SDS011;42992;49.084;19.300;2023-07-31T06:14:13;8.10;;;3.08;;
57111;SDS011;42992;49.084;19.300;2023-07-31T06:16:38;5.35;;;2.38;;
57111;SDS011;42992;49.084;19.300;2023-07-31T06:19:03;10.30;;;2.92;;
57111;SDS011;42992;49.084;19.300;2023-07-31T06:21:29;11.45;;;2.70;;
57111;SDS011;42992;49.084;19.300;2023-07-31T06:23:55;9.38;;;2.72;;
57111;SDS011;42992;49.084;19.300;2023-07-31T06:26:20;17.65;;;3.22;;
57111;SDS011;42992;49.084;19.300;2023-07-31T06:28:45;27.02;;;4.35;;
57111;SDS011;42992;49.084;19.300;2023-07-31T06:31:10;16.67;;;3.38;;
57111;SDS011;42992;49.084;19.300;2023-07-31T06:33:35;13.80;;;3.83;;
57111;SDS011;42992;49.084;19.300;2023-07-31T06:36:01;6.90;;;3.40;;
57111;SDS011;42992;49.084;19.300;2023-07-31T06:38:26;7.47;;;3.50;;
57111;SDS011;42992;49.084;19.300;2023-07-31T06:40:52;7.93;;;3.15;;
57111;SDS011;42992;49.084;19.300;2023-07-31T06:43:17;8.38;;;2.70;;
57111;SDS011;42992;49.084;19.300;2023-07-31T06:45:42;13.27;;;3.60;;
57111;SDS011;42992;49.084;19.300;2023-07-31T06:48:08;6.50;;;2.03;;
57111;SDS011;42992;49.084;19.300;2023-07-31T06:50:33;3.75;;;1.73;;
57111;SDS011;42992;49.084;19.300;2023-07-31T06:52:58;3.55;;;1.60;;
57111;SDS011;42992;49.084;19.300;2023-07-31T06:55:24;3.65;;;1.95;;
57111;SDS011;42992;49.084;19.300;2023-07-31T06:57:50;3.08;;;1.50;;
57111;SDS011;42992;49.084;19.300;2023-07-31T07:00:16;5.70;;;1.73;;
57111;SDS011;42992;49.084;19.300;2023-07-31T07:02:41;4.30;;;1.50;;
57111;SDS011;42992;49.084;19.300;2023-07-31T07:05:06;4.32;;;1.95;;
57111;SDS011;42992;49.084;19.300;2023-07-31T07:07:32;3.78;;;2.05;;
57111;SDS011;42992;49.084;19.300;2023-07-31T07:09:57;3.13;;;1.60;;
57111;SDS011;42992;49.084;19.300;2023-07-31T07:12:24;4.25;;;1.70;;
57111;SDS011;42992;49.084;19.300;2023-07-31T07:14:50;5.70;;;1.80;;
57111;SDS011;42992;49.084;19.300;2023-07-31T07:17:15;2.97;;;1.60;;
57111;SDS011;42992;49.084;19.300;2023-07-31T07:19:40;5.05;;;1.77;;
57111;SDS011;42992;49.084;19.300;2023-07-31T07:22:05;5.72;;;1.83;;
57111;SDS011;42992;49.084;19.300;2023-07-31T07:24:31;4.97;;;2.00;;
57111;SDS011;42992;49.084;19.300;2023-07-31T07:26:56;2.92;;;1.88;;
57111;SDS011;42992;49.084;19.300;2023-07-31T07:29:21;3.65;;;1.88;;
57111;SDS011;42992;49.084;19.300;2023-07-31T07:31:47;5.25;;;1.80;;
57111;SDS011;42992;49.084;19.300;2023-07-31T07:36:41;3.60;;;1.90;;
57111;SDS011;42992;49.084;19.300;2023-07-31T07:39:08;3.13;;;1.55;;
57111;SDS011;42992;49.084;19.300;2023-07-31T07:41:33;5.78;;;1.90;;
57111;SDS011;42992;49.084;19.300;2023-07-31T07:43:58;6.45;;;2.00;;
57111;SDS011;42992;49.084;19.300;2023-07-31T07:46:23;5.47;;;1.92;;
57111;SDS011;42992;49.084;19.300;2023-07-31T07:48:49;4.50;;;1.70;;
57111;SDS011;42992;49.084;19.300;2023-07-31T07:51:14;5.95;;;2.00;;
57111;SDS011;42992;49.084;19.300;2023-07-31T07:53:39;4.60;;;1.50;;
57111;SDS011;42992;49.084;19.300;2023-07-31T07:56:04;5.20;;;1.60;;
57111;SDS011;42992;49.084;19.300;2023-07-31T07:58:32;4.18;;;1.77;;
57111;SDS011;42992;49.084;19.300;2023-07-31T08:01:00;5.03;;;2.05;;
57111;SDS011;42992;49.084;19.300;2023-07-31T08:03:25;4.07;;;1.73;;
57111;SDS011;42992;49.084;19.300;2023-07-31T08:05:50;3.42;;;1.73;;
57111;SDS011;42992;49.084;19.300;2023-07-31T08:08:16;3.87;;;1.93;;
57111;SDS011;42992;49.084;19.300;2023-07-31T08:10:41;3.83;;;1.90;;
57111;SDS011;42992;49.084;19.300;2023-07-31T08:13:07;6.60;;;2.10;;
57111;SDS011;42992;49.084;19.300;2023-07-31T08:15:32;6.18;;;2.13;;
57111;SDS011;42992;49.084;19.300;2023-07-31T08:17:57;5.47;;;2.10;;
57111;SDS011;42992;49.084;19.300;2023-07-31T08:20:22;5.85;;;2.22;;
57111;SDS011;42992;49.084;19.300;2023-07-31T08:22:49;4.97;;;1.90;;
57111;SDS011;42992;49.084;19.300;2023-07-31T08:25:14;3.88;;;1.90;;
57111;SDS011;42992;49.084;19.300;2023-07-31T08:27:42;6.53;;;2.20;;
57111;SDS011;42992;49.084;19.300;2023-07-31T08:30:08;4.20;;;2.10;;
57111;SDS011;42992;49.084;19.300;2023-07-31T08:32:33;4.97;;;2.10;;
57111;SDS011;42992;49.084;19.300;2023-07-31T08:34:58;4.00;;;2.10;;
57111;SDS011;42992;49.084;19.300;2023-07-31T08:37:24;4.80;;;2.08;;
57111;SDS011;42992;49.084;19.300;2023-07-31T08:39:49;3.50;;;2.10;;
57111;SDS011;42992;49.084;19.300;2023-07-31T08:42:14;4.80;;;2.10;;
57111;SDS011;42992;49.084;19.300;2023-07-31T08:44:39;4.50;;;1.90;;
57111;SDS011;42992;49.084;19.300;2023-07-31T08:47:05;11.27;;;2.58;;
57111;SDS011;42992;49.084;19.300;2023-07-31T08:49:30;6.07;;;2.35;;
57111;SDS011;42992;49.084;19.300;2023-07-31T08:51:56;9.20;;;2.70;;
57111;SDS011;42992;49.084;19.300;2023-07-31T08:54:25;6.93;;;2.30;;
57111;SDS011;42992;49.084;19.300;2023-07-31T08:56:56;3.80;;;2.17;;
57111;SDS011;42992;49.084;19.300;2023-07-31T08:59:21;8.10;;;2.28;;
57111;SDS011;42992;49.084;19.300;2023-07-31T09:01:48;6.60;;;2.58;;
57111;SDS011;42992;49.084;19.300;2023-07-31T09:04:14;8.45;;;2.58;;
57111;SDS011;42992;49.084;19.300;2023-07-31T09:06:41;6.80;;;2.50;;
57111;SDS011;42992;49.084;19.300;2023-07-31T09:09:07;4.75;;;2.35;;
57111;SDS011;42992;49.084;19.300;2023-07-31T09:11:32;7.80;;;2.40;;
57111;SDS011;42992;49.084;19.300;2023-07-31T09:13:57;8.05;;;2.60;;
57111;SDS011;42992;49.084;19.300;2023-07-31T09:16:29;6.70;;;2.47;;
57111;SDS011;42992;49.084;19.300;2023-07-31T09:18:56;4.32;;;2.30;;
57111;SDS011;42992;49.084;19.300;2023-07-31T09:21:23;4.30;;;2.22;;
57111;SDS011;42992;49.084;19.300;2023-07-31T09:23:49;5.75;;;2.35;;
57111;SDS011;42992;49.084;19.300;2023-07-31T09:26:33;5.50;;;2.40;;
57111;SDS011;42992;49.084;19.300;2023-07-31T09:29:00;4.90;;;2.42;;
57111;SDS011;42992;49.084;19.300;2023-07-31T09:31:59;4.50;;;2.15;;
57111;SDS011;42992;49.084;19.300;2023-07-31T09:34:17;4.22;;;2.40;;
57111;SDS011;42992;49.084;19.300;2023-07-31T09:36:46;4.72;;;2.42;;
57111;SDS011;42992;49.084;19.300;2023-07-31T09:39:12;3.92;;;2.40;;
57111;SDS011;42992;49.084;19.300;2023-07-31T09:41:38;5.40;;;2.05;;
57111;SDS011;42992;49.084;19.300;2023-07-31T09:44:04;4.43;;;2.28;;
57111;SDS011;42992;49.084;19.300;2023-07-31T09:46:29;3.88;;;2.03;;
57111;SDS011;42992;49.084;19.300;2023-07-31T09:49:02;3.72;;;2.13;;
57111;SDS011;42992;49.084;19.300;2023-07-31T09:51:28;3.72;;;2.35;;
57111;SDS011;42992;49.084;19.300;2023-07-31T09:53:56;4.07;;;2.00;;
57111;SDS011;42992;49.084;19.300;2023-07-31T09:56:21;4.57;;;2.33;;
57111;SDS011;42992;49.084;19.300;2023-07-31T09:58:46;4.15;;;2.40;;
57111;SDS011;42992;49.084;19.300;2023-07-31T10:01:12;3.85;;;1.92;;
57111;SDS011;42992;49.084;19.300;2023-07-31T10:03:38;3.45;;;2.00;;
57111;SDS011;42992;49.084;19.300;2023-07-31T10:06:04;5.97;;;1.92;;
57111;SDS011;42992;49.084;19.300;2023-07-31T10:08:30;3.55;;;2.17;;
57111;SDS011;42992;49.084;19.300;2023-07-31T10:11:00;3.95;;;2.30;;
57111;SDS011;42992;49.084;19.300;2023-07-31T10:13:27;5.45;;;2.00;;
57111;SDS011;42992;49.084;19.300;2023-07-31T10:15:53;3.70;;;2.08;;
57111;SDS011;42992;49.084;19.300;2023-07-31T10:18:18;3.25;;;1.90;;
57111;SDS011;42992;49.084;19.300;2023-07-31T10:20:45;3.60;;;1.98;;
57111;SDS011;42992;49.084;19.300;2023-07-31T10:23:11;3.65;;;1.90;;
57111;SDS011;42992;49.084;19.300;2023-07-31T10:25:38;5.82;;;1.90;;
57111;SDS011;42992;49.084;19.300;2023-07-31T10:28:04;4.20;;;2.20;;
57111;SDS011;42992;49.084;19.300;2023-07-31T10:30:30;4.30;;;1.70;;
57111;SDS011;42992;49.084;19.300;2023-07-31T10:32:58;4.20;;;2.03;;
57111;SDS011;42992;49.084;19.300;2023-07-31T10:35:23;4.05;;;1.65;;
57111;SDS011;42992;49.084;19.300;2023-07-31T10:37:49;4.50;;;1.70;;
57111;SDS011;42992;49.084;19.300;2023-07-31T10:42:52;4.82;;;2.08;;
57111;SDS011;42992;49.084;19.300;2023-07-31T10:45:26;4.18;;;2.10;;
57111;SDS011;42992;49.084;19.300;2023-07-31T10:47:59;4.43;;;2.15;;
57111;SDS011;42992;49.084;19.300;2023-07-31T10:50:29;5.30;;;2.10;;
57111;SDS011;42992;49.084;19.300;2023-07-31T10:52:55;8.65;;;1.90;;
57111;SDS011;42992;49.084;19.300;2023-07-31T10:55:25;6.07;;;2.25;;
57111;SDS011;42992;49.084;19.300;2023-07-31T10:57:51;4.45;;;2.10;;
57111;SDS011;42992;49.084;19.300;2023-07-31T11:02:55;3.50;;;2.05;;
57111;SDS011;42992;49.084;19.300;2023-07-31T11:05:21;4.07;;;2.40;;
57111;SDS011;42992;49.084;19.300;2023-07-31T11:08:10;5.43;;;1.90;;
57111;SDS011;42992;49.084;19.300;2023-07-31T11:10:35;3.72;;;1.67;;
57111;SDS011;42992;49.084;19.300;2023-07-31T11:13:00;3.78;;;1.77;;
57111;SDS011;42992;49.084;19.300;2023-07-31T11:15:28;2.58;;;1.75;;
57111;SDS011;42992;49.084;19.300;2023-07-31T11:17:54;3.72;;;1.98;;
57111;SDS011;42992;49.084;19.300;2023-07-31T11:20:23;3.38;;;1.60;;
57111;SDS011;42992;49.084;19.300;2023-07-31T11:22:48;2.95;;;1.70;;
57111;SDS011;42992;49.084;19.300;2023-07-31T11:25:14;4.78;;;2.10;;
57111;SDS011;42992;49.084;19.300;2023-07-31T11:27:39;4.75;;;1.98;;
57111;SDS011;42992;49.084;19.300;2023-07-31T11:30:08;4.28;;;1.55;;
57111;SDS011;42992;49.084;19.300;2023-07-31T11:32:36;6.13;;;1.98;;
57111;SDS011;42992;49.084;19.300;2023-07-31T11:35:01;7.00;;;2.00;;
57111;SDS011;42992;49.084;19.300;2023-07-31T11:37:42;3.60;;;2.03;;
57111;SDS011;42992;49.084;19.300;2023-07-31T11:40:08;3.30;;;1.73;;
57111;SDS011;42992;49.084;19.300;2023-07-31T11:42:34;3.25;;;1.75;;
57111;SDS011;42992;49.084;19.300;2023-07-31T11:45:03;2.65;;;1.40;;
57111;SDS011;42992;49.084;19.300;2023-07-31T11:47:29;3.92;;;1.98;;
57111;SDS011;42992;49.084;19.300;2023-07-31T11:49:55;3.53;;;2.15;;
57111;SDS011;42992;49.084;19.300;2023-07-31T11:52:21;3.88;;;2.10;;
57111;SDS011;42992;49.084;19.300;2023-07-31T11:54:48;4.03;;;1.70;;
57111;SDS011;42992;49.084;19.300;2023-07-31T11:57:13;4.57;;;2.00;;
57111;SDS011;42992;49.084;19.300;2023-07-31T11:59:42;3.97;;;1.70;;
57111;SDS011;42992;49.084;19.300;2023-07-31T12:02:07;4.72;;;2.08;;
57111;SDS011;42992;49.084;19.300;2023-07-31T12:04:33;4.60;;;1.80;;
57111;SDS011;42992;49.084;19.300;2023-07-31T12:07:00;3.20;;;1.63;;
57111;SDS011;42992;49.084;19.300;2023-07-31T12:09:25;3.60;;;1.75;;
57111;SDS011;42992;49.084;19.300;2023-07-31T12:11:51;4.90;;;2.00;;
57111;SDS011;42992;49.084;19.300;2023-07-31T12:14:26;2.80;;;1.63;;
57111;SDS011;42992;49.084;19.300;2023-07-31T12:16:58;3.67;;;2.00;;
57111;SDS011;42992;49.084;19.300;2023-07-31T12:19:24;4.32;;;1.80;;
57111;SDS011;42992;49.084;19.300;2023-07-31T12:21:52;3.75;;;1.85;;
57111;SDS011;42992;49.084;19.300;2023-07-31T12:24:18;3.63;;;1.90;;
57111;SDS011;42992;49.084;19.300;2023-07-31T12:26:45;3.38;;;1.73;;
57111;SDS011;42992;49.084;19.300;2023-07-31T12:29:10;3.38;;;1.90;;
57111;SDS011;42992;49.084;19.300;2023-07-31T12:31:36;3.97;;;2.10;;
57111;SDS011;42992;49.084;19.300;2023-07-31T12:34:01;2.78;;;1.50;;
57111;SDS011;42992;49.084;19.300;2023-07-31T12:36:27;4.40;;;2.20;;
57111;SDS011;42992;49.084;19.300;2023-07-31T12:38:55;4.43;;;1.80;;
57111;SDS011;42992;49.084;19.300;2023-07-31T12:41:23;3.70;;;2.00;;
57111;SDS011;42992;49.084;19.300;2023-07-31T12:43:49;3.38;;;1.60;;
57111;SDS011;42992;49.084;19.300;2023-07-31T12:46:14;4.82;;;1.90;;
57111;SDS011;42992;49.084;19.300;2023-07-31T12:48:41;4.43;;;1.63;;
57111;SDS011;42992;49.084;19.300;2023-07-31T12:51:06;7.07;;;2.10;;
57111;SDS011;42992;49.084;19.300;2023-07-31T12:53:32;3.72;;;2.00;;
57111;SDS011;42992;49.084;19.300;2023-07-31T12:55:58;3.80;;;1.90;;
57111;SDS011;42992;49.084;19.300;2023-07-31T12:58:23;3.58;;;1.80;;
57111;SDS011;42992;49.084;19.300;2023-07-31T13:00:48;4.55;;;1.70;;
57111;SDS011;42992;49.084;19.300;2023-07-31T13:03:13;3.85;;;2.10;;
57111;SDS011;42992;49.084;19.300;2023-07-31T13:05:39;3.97;;;2.00;;
57111;SDS011;42992;49.084;19.300;2023-07-31T13:08:04;3.58;;;1.70;;
57111;SDS011;42992;49.084;19.300;2023-07-31T13:10:29;4.78;;;1.73;;
57111;SDS011;42992;49.084;19.300;2023-07-31T13:12:55;3.83;;;2.30;;
57111;SDS011;42992;49.084;19.300;2023-07-31T13:15:20;4.28;;;1.83;;
57111;SDS011;42992;49.084;19.300;2023-07-31T13:17:46;3.88;;;1.90;;
57111;SDS011;42992;49.084;19.300;2023-07-31T13:20:11;11.10;;;2.30;;
57111;SDS011;42992;49.084;19.300;2023-07-31T13:22:36;4.72;;;2.00;;
57111;SDS011;42992;49.084;19.300;2023-07-31T13:25:02;5.97;;;1.75;;
57111;SDS011;42992;49.084;19.300;2023-07-31T13:27:28;9.23;;;1.90;;
57111;SDS011;42992;49.084;19.300;2023-07-31T13:29:53;3.00;;;1.70;;
57111;SDS011;42992;49.084;19.300;2023-07-31T13:32:18;3.80;;;1.90;;
57111;SDS011;42992;49.084;19.300;2023-07-31T13:34:44;7.20;;;2.20;;
57111;SDS011;42992;49.084;19.300;2023-07-31T13:37:10;4.35;;;2.20;;
57111;SDS011;42992;49.084;19.300;2023-07-31T13:39:35;4.07;;;1.77;;
57111;SDS011;42992;49.084;19.300;2023-07-31T13:42:02;11.43;;;2.60;;
57111;SDS011;42992;49.084;19.300;2023-07-31T13:44:28;6.45;;;2.28;;
57111;SDS011;42992;49.084;19.300;2023-07-31T13:46:53;7.15;;;1.98;;
57111;SDS011;42992;49.084;19.300;2023-07-31T13:49:18;3.30;;;1.40;;
57111;SDS011;42992;49.084;19.300;2023-07-31T13:51:44;3.50;;;1.60;;
57111;SDS011;42992;49.084;19.300;2023-07-31T13:54:09;4.25;;;1.85;;
57111;SDS011;42992;49.084;19.300;2023-07-31T13:56:36;5.95;;;2.30;;
57111;SDS011;42992;49.084;19.300;2023-07-31T13:59:02;3.10;;;1.80;;
57111;SDS011;42992;49.084;19.300;2023-07-31T14:01:27;3.77;;;1.57;;
57111;SDS011;42992;49.084;19.300;2023-07-31T14:03:52;3.72;;;1.60;;
57111;SDS011;42992;49.084;19.300;2023-07-31T14:06:18;4.18;;;1.80;;
57111;SDS011;42992;49.084;19.300;2023-07-31T14:08:43;6.43;;;1.80;;
57111;SDS011;42992;49.084;19.300;2023-07-31T14:11:08;4.00;;;1.80;;
57111;SDS011;42992;49.084;19.300;2023-07-31T14:13:36;5.03;;;1.90;;
57111;SDS011;42992;49.084;19.300;2023-07-31T14:16:02;4.10;;;1.92;;
57111;SDS011;42992;49.084;19.300;2023-07-31T14:18:27;4.95;;;1.90;;
57111;SDS011;42992;49.084;19.300;2023-07-31T14:20:52;5.03;;;1.80;;
57111;SDS011;42992;49.084;19.300;2023-07-31T14:23:18;3.67;;;1.65;;
57111;SDS011;42992;49.084;19.300;2023-07-31T14:25:44;3.13;;;1.60;;
57111;SDS011;42992;49.084;19.300;2023-07-31T14:28:10;5.35;;;2.08;;
57111;SDS011;42992;49.084;19.300;2023-07-31T14:30:35;3.13;;;1.52;;
57111;SDS011;42992;49.084;19.300;2023-07-31T14:33:00;2.83;;;1.75;;
57111;SDS011;42992;49.084;19.300;2023-07-31T14:35:27;3.45;;;1.90;;
57111;SDS011;42992;49.084;19.300;2023-07-31T14:37:52;4.50;;;1.70;;